This is the latest recevied weather packets stored in our database for station/object HOWARD. If no packets are shown the sender has not sent any weather packets the latest 1 day(s).
| Time | Temp. | Humidity | Pressure | Rain* | Wind** | Luminosity | Snow |
|---|---|---|---|---|---|---|---|
| 1778003509 | 7.78° C | 57% | 1010.6 hPa | 0 mm | 2.68 m/s, 345° | - | - |
| 1778002908 | 7.22° C | 57% | 1010.6 hPa | 0 mm | 1.79 m/s, 356° | - | - |
| 1778002308 | 7.22° C | 57% | 1010.4 hPa | 0 mm | 2.68 m/s, 343° | - | - |
| 1778001708 | 7.78° C | 57% | 1010.5 hPa | 0 mm | 1.79 m/s, 359° | - | - |
| 1778001108 | 7.22° C | 57% | 1010.3 hPa | 0 mm | 2.24 m/s, 344° | - | - |
| 1778000508 | 7.22° C | 55% | 1010.2 hPa | 0 mm | 2.24 m/s, 343° | - | - |
| 1777999908 | 7.22° C | 56% | 1010.2 hPa | 0 mm | 2.24 m/s, 9° | - | - |
| 1777999373 | 7.22° C | 54% | 1010 hPa | 0 mm | 2.68 m/s, 341° | - | - |
| 1777999308 | 7.22° C | 54% | 1010 hPa | 0 mm | 2.68 m/s, 341° | - | - |
| 1777998708 | 6.67° C | 57% | 1010 hPa | 0 mm | 1.79 m/s, 355° | - | - |
| 1777998108 | 6.67° C | 56% | 1009.9 hPa | 0 mm | 2.24 m/s, 340° | - | - |
| 1777997508 | 6.67° C | 52% | 1009.9 hPa | 0 mm | 3.13 m/s, 16° | - | - |
| 1777996908 | 6.67° C | 55% | 1009.8 hPa | 0 mm | 2.24 m/s, 357° | - | - |
| 1777996308 | 6.11° C | 56% | 1009.7 hPa | 0 mm | 2.24 m/s, 11° | - | - |
| 1777995708 | 6.67° C | 53% | 1009.6 hPa | 0 mm | 3.13 m/s, 4° | - | - |
| 1777995108 | 6.11° C | 55% | 1009.6 hPa | 0 mm | 2.24 m/s, 351° | - | - |
| 1777994508 | 6.11° C | 51% | 1009.5 hPa | 0 mm | 3.13 m/s, 5° | - | - |
| 1777993908 | 6.67° C | 52% | 1009.5 hPa | 0 mm | 2.68 m/s, 5° | - | - |
| 1777993308 | 6.67° C | 53% | 1009.2 hPa | 0 mm | 1.79 m/s, 2° | - | - |
| 1777992708 | 6.11° C | 55% | 1009.1 hPa | 0 mm | 2.24 m/s, 16° | - | - |
| 1777992108 | 6.11° C | 57% | 1009 hPa | 0 mm | 2.24 m/s, 20° | - | - |
| 1777991508 | 5.56° C | 60% | 1008.9 hPa | 0 mm | 2.68 m/s, 2° | - | - |
| 1777990908 | 5.56° C | 60% | 1008.8 hPa | 0 mm | 2.24 m/s, 12° | - | - |
| 1777990308 | 5.56° C | 61% | 1008.7 hPa | 0 mm | 2.24 m/s, 4° | - | - |
| 1777989759 | 5.56° C | 57% | 1008.6 hPa | 0 mm | 2.24 m/s, 28° | - | - |
* Rain latest hour (hover to see other rain measurements)
** Current wind speed in m/s (hover to see current wind gust speed)